Virtual Cathay Airport Information Service

Macau International Airport

ICAO: VMMC Country: China
Latitude: 22.1495 Longitude: 113.591
Latest Arrival : CPC366 (ZUCK-VMMC) Latest Departure : CPC122 (VMMC-RKPC)


WX CaptureLIVE
Data provided by noaa.gov | Fetched at 17:18:35

METAR : VMMC 200900Z 11010KT CAVOK 24/19 Q1011 NOSIG

TAF : VMMC 200500Z 2006/2112 09010KT 9999 FEW025


Runway Data for VMMC
Data provided by openaviationdata.com

Runway ID Mag Var Hdg Length Elevation Surface ILS Freq ILS Id ILS Slope
16 -2 163° 11048 ft 20 ft Concrete 111.7 MCS 0
34 -2 343° 11048 ft 20 ft Concrete 109.7 MCN 3

Macau International Airport, China
Use only for reference purposes



Not for navigational purposes.